createdAt,value
2018-01-18T00:00:00.832Z,779.21
2018-01-18T00:00:04.746Z,779.22
2018-01-18T00:00:08.764Z,779.18
2018-01-18T00:00:12.892Z,779.18
2018-01-18T00:00:16.708Z,779.19
2018-01-18T00:00:20.816Z,779.18
2018-01-18T00:00:24.516Z,779.18
2018-01-18T00:00:28.411Z,779.15
2018-01-18T00:00:32.219Z,779.15
2018-01-18T00:00:36.355Z,779.15
2018-01-18T00:00:40.356Z,779.15
2018-01-18T00:00:44.173Z,779.17
2018-01-18T00:00:48.293Z,779.14
2018-01-18T00:00:52.102Z,779.17
2018-01-18T00:00:55.911Z,779.16
2018-01-18T00:00:59.809Z,779.19
2018-01-18T00:01:03.732Z,779.18
2018-01-18T00:01:07.536Z,779.17
2018-01-18T00:01:11.542Z,779.16
2018-01-18T00:01:15.556Z,779.15
2018-01-18T00:01:19.354Z,779.16
2018-01-18T00:01:23.473Z,779.15
2018-01-18T00:01:27.392Z,779.17
2018-01-18T00:01:31.205Z,779.15
2018-01-18T00:01:35.226Z,779.13
2018-01-18T00:01:39.034Z,779.13
2018-01-18T00:01:43.273Z,779.12
2018-01-18T00:01:47.192Z,779.14
2018-01-18T00:01:51.008Z,779.12
2018-01-18T00:01:54.922Z,779.12
2018-01-18T00:01:59.048Z,779.11
2018-01-18T00:02:03.145Z,779.16
2018-01-18T00:02:07.055Z,779.12
2018-01-18T00:02:10.854Z,779.12
2018-01-18T00:02:14.770Z,779.13
2018-01-18T00:02:18.798Z,779.13
2018-01-18T00:02:22.919Z,779.13
2018-01-18T00:02:26.927Z,779.11
2018-01-18T00:02:30.837Z,779.1
2018-01-18T00:02:34.842Z,779.1
2018-01-18T00:02:38.854Z,779.09
2018-01-18T00:02:42.875Z,779.11
2018-01-18T00:02:46.796Z,779.1
2018-01-18T00:02:50.604Z,779.11
2018-01-18T00:02:54.399Z,779.12
2018-01-18T00:02:58.313Z,779.12
2018-01-18T00:03:02.647Z,779.11
2018-01-18T00:03:06.673Z,779.09
2018-01-18T00:03:10.701Z,779.07
2018-01-18T00:03:14.721Z,779.07
2018-01-18T00:03:18.729Z,779.08
2018-01-18T00:03:22.753Z,779.07
2018-01-18T00:03:26.562Z,779.09
2018-01-18T00:03:30.585Z,779.1
2018-01-18T00:03:34.504Z,779.07
2018-01-18T00:03:38.297Z,779.06
2018-01-18T00:03:42.401Z,779.04
2018-01-18T00:03:46.418Z,779.04
2018-01-18T00:03:50.326Z,779.06
2018-01-18T00:03:54.130Z,779.04
2018-01-18T00:03:57.940Z,779.03
2018-01-18T00:04:01.637Z,779.01
2018-01-18T00:04:06.058Z,779.05
2018-01-18T00:04:10.069Z,779.04
2018-01-18T00:04:13.862Z,779.07
2018-01-18T00:04:17.673Z,779.05
2018-01-18T00:04:21.481Z,779.04
2018-01-18T00:04:25.607Z,779.04
2018-01-18T00:04:29.431Z,779.05
2018-01-18T00:04:33.339Z,779.03
2018-01-18T00:04:37.143Z,779.01
2018-01-18T00:04:41.035Z,779.04
2018-01-18T00:04:44.976Z,779.01
2018-01-18T00:04:48.790Z,779.04
2018-01-18T00:04:52.752Z,779.03
2018-01-18T00:04:56.771Z,779.04
2018-01-18T00:05:00.685Z,779.03
2018-01-18T00:05:04.590Z,779.04
2018-01-18T00:05:08.404Z,779.08
2018-01-18T00:05:12.314Z,779.04
2018-01-18T00:05:16.118Z,779.04
2018-01-18T00:05:20.149Z,779
2018-01-18T00:05:24.184Z,779.03
2018-01-18T00:05:27.987Z,779
2018-01-18T00:05:31.899Z,779.01
2018-01-18T00:05:36.016Z,779.01
2018-01-18T00:05:40.040Z,779.01
2018-01-18T00:05:43.730Z,778.98
2018-01-18T00:05:47.896Z,778.97
2018-01-18T00:05:52.018Z,778.99
2018-01-18T00:05:55.831Z,778.98
2018-01-18T00:05:59.840Z,778.97
2018-01-18T00:06:03.750Z,779.01
2018-01-18T00:06:07.770Z,778.97
2018-01-18T00:06:11.578Z,778.99
2018-01-18T00:06:15.493Z,778.97
2018-01-18T00:06:19.304Z,778.98
2018-01-18T00:06:23.210Z,778.95
2018-01-18T00:06:27.223Z,778.99
2018-01-18T00:06:30.921Z,778.98
2018-01-18T00:06:34.952Z,778.96
2018-01-18T00:06:39.118Z,778.96
2018-01-18T00:06:43.136Z,779
2018-01-18T00:06:47.179Z,778.98
2018-01-18T00:06:51.088Z,778.97
2018-01-18T00:06:54.898Z,778.95
2018-01-18T00:06:58.917Z,778.93
2018-01-18T00:07:03.029Z,778.98
2018-01-18T00:07:06.826Z,778.94
2018-01-18T00:07:10.732Z,778.94
2018-01-18T00:07:14.528Z,778.93
2018-01-18T00:07:18.443Z,778.93
2018-01-18T00:07:22.376Z,778.94
2018-01-18T00:07:26.207Z,778.95
2018-01-18T00:07:30.009Z,778.92
2018-01-18T00:07:34.029Z,778.91
2018-01-18T00:07:37.829Z,778.93
2018-01-18T00:07:41.637Z,778.93
2018-01-18T00:07:45.563Z,778.94
2018-01-18T00:07:49.370Z,778.93
2018-01-18T00:07:53.283Z,778.92
2018-01-18T00:07:57.081Z,778.94
2018-01-18T00:08:01.211Z,778.91
2018-01-18T00:08:05.406Z,778.92
2018-01-18T00:08:09.331Z,778.92
2018-01-18T00:08:13.446Z,778.92
2018-01-18T00:08:17.348Z,778.89
2018-01-18T00:08:21.374Z,778.9
2018-01-18T00:08:25.386Z,778.93
2018-01-18T00:08:29.393Z,778.88
2018-01-18T00:08:33.210Z,778.91
2018-01-18T00:08:37.374Z,778.91
2018-01-18T00:08:41.193Z,778.86
2018-01-18T00:08:44.902Z,778.88
2018-01-18T00:08:48.811Z,778.89
2018-01-18T00:08:52.829Z,778.85
2018-01-18T00:08:56.834Z,778.87
2018-01-18T00:09:00.620Z,778.87
2018-01-18T00:09:04.736Z,778.84
2018-01-18T00:09:08.889Z,778.89
2018-01-18T00:09:12.925Z,778.89
2018-01-18T00:09:17.053Z,778.91
2018-01-18T00:09:21.077Z,778.88
2018-01-18T00:09:24.996Z,778.9
2018-01-18T00:09:28.926Z,778.9
2018-01-18T00:09:32.842Z,778.89
2018-01-18T00:09:36.862Z,778.92
2018-01-18T00:09:40.772Z,778.92
2018-01-18T00:09:44.882Z,778.9
2018-01-18T00:09:48.896Z,778.92
2018-01-18T00:09:52.899Z,778.9
2018-01-18T00:09:56.799Z,778.9
2018-01-18T00:10:00.807Z,778.93
2018-01-18T00:10:04.965Z,778.92
2018-01-18T00:10:08.977Z,778.91
2018-01-18T00:10:12.796Z,778.86
2018-01-18T00:10:17.061Z,778.91
2018-01-18T00:10:21.184Z,778.87
2018-01-18T00:10:25.105Z,778.88
2018-01-18T00:10:29.127Z,778.89
2018-01-18T00:10:33.050Z,778.92
2018-01-18T00:10:37.191Z,778.89
2018-01-18T00:10:41.311Z,778.9
2018-01-18T00:10:45.233Z,778.9
2018-01-18T00:10:49.139Z,778.88
2018-01-18T00:10:53.157Z,778.94
2018-01-18T00:10:56.972Z,778.93
2018-01-18T00:11:00.993Z,778.92
2018-01-18T00:11:05.105Z,778.93
2018-01-18T00:11:08.896Z,778.9
2018-01-18T00:11:12.803Z,778.9
2018-01-18T00:11:16.922Z,778.92
2018-01-18T00:11:20.831Z,778.91
2018-01-18T00:11:24.654Z,778.91
2018-01-18T00:11:28.573Z,778.95
2018-01-18T00:11:32.572Z,778.91
2018-01-18T00:11:36.471Z,778.89
2018-01-18T00:11:40.486Z,778.92
2018-01-18T00:11:44.403Z,778.93
2018-01-18T00:11:48.426Z,778.91
2018-01-18T00:11:52.442Z,778.9
2018-01-18T00:11:56.458Z,778.92
2018-01-18T00:12:00.382Z,778.91
2018-01-18T00:12:04.610Z,778.9
2018-01-18T00:12:08.528Z,778.93
2018-01-18T00:12:12.439Z,778.94
2018-01-18T00:12:16.359Z,778.94
2018-01-18T00:12:20.477Z,778.93
2018-01-18T00:12:24.595Z,778.88
2018-01-18T00:12:28.602Z,778.9
2018-01-18T00:12:32.824Z,778.91
2018-01-18T00:12:36.729Z,778.91
2018-01-18T00:12:40.856Z,778.9
2018-01-18T00:12:44.869Z,778.9
2018-01-18T00:12:48.893Z,778.93
2018-01-18T00:12:52.914Z,778.91
2018-01-18T00:12:57.136Z,778.93
2018-01-18T00:13:00.940Z,778.95
2018-01-18T00:13:04.950Z,778.95
2018-01-18T00:13:09.082Z,778.92
2018-01-18T00:13:13.094Z,778.95
2018-01-18T00:13:17.005Z,778.94
2018-01-18T00:13:21.035Z,778.96
2018-01-18T00:13:24.954Z,779.01
2018-01-18T00:13:28.972Z,778.96
2018-01-18T00:13:32.863Z,778.96
2018-01-18T00:13:36.879Z,778.98
2018-01-18T00:13:40.714Z,778.96
2018-01-18T00:13:44.616Z,778.92
2018-01-18T00:13:48.428Z,778.93
2018-01-18T00:13:52.451Z,778.94
2018-01-18T00:13:56.465Z,778.96
2018-01-18T00:14:00.275Z,778.96
2018-01-18T00:14:04.664Z,778.98
2018-01-18T00:14:08.684Z,778.93
2018-01-18T00:14:12.715Z,778.94
2018-01-18T00:14:16.625Z,778.93
2018-01-18T00:14:20.519Z,778.93
2018-01-18T00:14:24.538Z,778.95
2018-01-18T00:14:28.345Z,778.95
2018-01-18T00:14:32.456Z,778.96
2018-01-18T00:14:36.370Z,778.96
2018-01-18T00:14:40.286Z,778.96
2018-01-18T00:14:44.195Z,778.97
2018-01-18T00:14:48.112Z,778.96
2018-01-18T00:14:52.018Z,778.96
2018-01-18T00:14:55.819Z,778.96
2018-01-18T00:14:59.521Z,778.95
2018-01-18T00:15:03.784Z,778.92
2018-01-18T00:15:07.781Z,778.94
2018-01-18T00:15:11.596Z,778.9
2018-01-18T00:15:15.604Z,778.91
2018-01-18T00:15:19.513Z,778.97
2018-01-18T00:15:23.329Z,779
2018-01-18T00:15:27.238Z,778.98
2018-01-18T00:15:31.254Z,779
2018-01-18T00:15:35.273Z,778.99
2018-01-18T00:15:39.306Z,778.97
2018-01-18T00:15:43.217Z,779.03
2018-01-18T00:15:47.247Z,779.03
2018-01-18T00:15:51.204Z,779.03
2018-01-18T00:15:55.100Z,779.04
2018-01-18T00:15:58.907Z,779
2018-01-18T00:16:02.761Z,779
2018-01-18T00:16:06.590Z,778.99
2018-01-18T00:16:10.613Z,779.02
2018-01-18T00:16:14.635Z,779.05
2018-01-18T00:16:18.755Z,779.02
2018-01-18T00:16:22.776Z,779.03
2018-01-18T00:16:26.638Z,779.04
2018-01-18T00:16:30.531Z,779.03
2018-01-18T00:16:34.650Z,779.03
2018-01-18T00:16:38.763Z,779.05
2018-01-18T00:16:42.793Z,779.05
2018-01-18T00:16:46.480Z,779.08
2018-01-18T00:16:50.174Z,779.07
2018-01-18T00:16:53.980Z,779.05
2018-01-18T00:16:57.806Z,779.12
2018-01-18T00:17:01.723Z,779.07
2018-01-18T00:17:05.842Z,779.07
2018-01-18T00:17:09.643Z,779.07
2018-01-18T00:17:13.543Z,779.1
2018-01-18T00:17:17.432Z,779.09
2018-01-18T00:17:21.242Z,779.07
2018-01-18T00:17:25.257Z,779.07
2018-01-18T00:17:29.166Z,779.11
2018-01-18T00:17:33.201Z,779.09
2018-01-18T00:17:37.132Z,779.08
2018-01-18T00:17:41.033Z,779.11
2018-01-18T00:17:44.943Z,779.09
2018-01-18T00:17:48.961Z,779.11
2018-01-18T00:17:52.874Z,779.09
2018-01-18T00:17:56.763Z,779.1
2018-01-18T00:18:00.868Z,779.1
2018-01-18T00:18:04.925Z,779.15
2018-01-18T00:18:08.931Z,779.12
2018-01-18T00:18:12.740Z,779.11
2018-01-18T00:18:16.961Z,779.14
2018-01-18T00:18:20.971Z,779.16
2018-01-18T00:18:24.889Z,779.14
2018-01-18T00:18:28.586Z,779.15
2018-01-18T00:18:32.819Z,779.15
2018-01-18T00:18:36.845Z,779.15
2018-01-18T00:18:40.773Z,779.15
2018-01-18T00:18:44.684Z,779.14
2018-01-18T00:18:48.479Z,779.18
2018-01-18T00:18:52.546Z,779.19
2018-01-18T00:18:56.414Z,779.16
2018-01-18T00:19:00.538Z,779.18
2018-01-18T00:19:04.770Z,779.18
2018-01-18T00:19:08.580Z,779.17
2018-01-18T00:19:12.273Z,779.12
2018-01-18T00:19:16.182Z,779.19
2018-01-18T00:19:20.323Z,779.19
2018-01-18T00:19:24.330Z,779.19
2018-01-18T00:19:28.025Z,779.17
2018-01-18T00:19:32.065Z,779.19
2018-01-18T00:19:36.084Z,779.23
2018-01-18T00:19:40.315Z,779.2
2018-01-18T00:19:44.120Z,779.2
2018-01-18T00:19:47.916Z,779.21
2018-01-18T00:19:51.838Z,779.21
2018-01-18T00:19:55.749Z,779.22
2018-01-18T00:19:59.462Z,779.22
2018-01-18T00:20:03.489Z,779.25
2018-01-18T00:20:07.513Z,779.21
2018-01-18T00:20:11.423Z,779.24
2018-01-18T00:20:15.543Z,779.23
2018-01-18T00:20:19.467Z,779.23
2018-01-18T00:20:23.274Z,779.23
2018-01-18T00:20:26.960Z,779.21
2018-01-18T00:20:30.760Z,779.27
2018-01-18T00:20:34.654Z,779.25
2018-01-18T00:20:38.574Z,779.24
2018-01-18T00:20:42.589Z,779.24
2018-01-18T00:20:46.517Z,779.29
2018-01-18T00:20:50.534Z,779.26
2018-01-18T00:20:54.774Z,779.29
2018-01-18T00:20:59.120Z,779.27
2018-01-18T00:21:03.354Z,779.25
2018-01-18T00:21:07.592Z,779.26
2018-01-18T00:21:11.833Z,779.27
2018-01-18T00:21:15.972Z,779.31
2018-01-18T00:21:19.791Z,779.26
2018-01-18T00:21:23.491Z,779.28
2018-01-18T00:21:27.299Z,779.29
2018-01-18T00:21:31.229Z,779.31
2018-01-18T00:21:35.140Z,779.29
2018-01-18T00:21:39.162Z,779.32
2018-01-18T00:21:43.276Z,779.32
2018-01-18T00:21:47.078Z,779.32
2018-01-18T00:21:50.868Z,779.32
2018-01-18T00:21:54.792Z,779.33
2018-01-18T00:21:58.600Z,779.33
2018-01-18T00:22:02.504Z,779.32
2018-01-18T00:22:06.420Z,779.32
2018-01-18T00:22:10.336Z,779.32
2018-01-18T00:22:14.446Z,779.31
2018-01-18T00:22:18.350Z,779.28
2018-01-18T00:22:22.258Z,779.34
2018-01-18T00:22:26.278Z,779.33
2018-01-18T00:22:30.089Z,779.34
2018-01-18T00:22:33.996Z,779.34
2018-01-18T00:22:38.110Z,779.37
2018-01-18T00:22:41.910Z,779.33
2018-01-18T00:22:45.704Z,779.29
2018-01-18T00:22:49.713Z,779.33
2018-01-18T00:22:53.622Z,779.32
2018-01-18T00:22:57.537Z,779.33
2018-01-18T00:23:01.750Z,779.35
2018-01-18T00:23:05.534Z,779.37
2018-01-18T00:23:09.337Z,779.41
2018-01-18T00:23:13.339Z,779.4
2018-01-18T00:23:17.250Z,779.39
2018-01-18T00:23:21.061Z,779.39
2018-01-18T00:23:24.761Z,779.41
2018-01-18T00:23:28.693Z,779.4
2018-01-18T00:23:32.496Z,779.4
2018-01-18T00:23:36.630Z,779.4
2018-01-18T00:23:40.678Z,779.46
2018-01-18T00:23:44.696Z,779.43
2018-01-18T00:23:48.593Z,779.46
2018-01-18T00:23:52.502Z,779.41
2018-01-18T00:23:56.418Z,779.43
2018-01-18T00:24:00.330Z,779.45
2018-01-18T00:24:04.258Z,779.44
2018-01-18T00:24:08.054Z,779.46
2018-01-18T00:24:11.844Z,779.45
2018-01-18T00:24:15.763Z,779.47
2018-01-18T00:24:19.460Z,779.48
2018-01-18T00:24:23.151Z,779.47
2018-01-18T00:24:26.853Z,779.49
2018-01-18T00:24:30.664Z,779.46
2018-01-18T00:24:34.670Z,779.45
2018-01-18T00:24:38.680Z,779.46
2018-01-18T00:24:42.474Z,779.52
2018-01-18T00:24:46.487Z,779.45
2018-01-18T00:24:50.395Z,779.5
2018-01-18T00:24:54.307Z,779.49
2018-01-18T00:24:58.109Z,779.49
2018-01-18T00:25:02.035Z,779.48
2018-01-18T00:25:06.045Z,779.5
2018-01-18T00:25:09.888Z,779.52
2018-01-18T00:25:13.661Z,779.52
2018-01-18T00:25:17.588Z,779.51
2018-01-18T00:25:21.818Z,779.52
2018-01-18T00:25:25.731Z,779.52
2018-01-18T00:25:29.641Z,779.54
2018-01-18T00:25:33.763Z,779.57
2018-01-18T00:25:37.979Z,779.51
2018-01-18T00:25:42.031Z,779.52
2018-01-18T00:25:46.153Z,779.51
2018-01-18T00:25:50.177Z,779.5
2018-01-18T00:25:54.081Z,779.5
2018-01-18T00:25:57.764Z,779.52
2018-01-18T00:26:01.763Z,779.55
2018-01-18T00:26:05.826Z,779.52
2018-01-18T00:26:09.635Z,779.53
2018-01-18T00:26:13.649Z,779.54
2018-01-18T00:26:17.555Z,779.53
2018-01-18T00:26:21.573Z,779.53
2018-01-18T00:26:25.477Z,779.54
2018-01-18T00:26:29.295Z,779.56
2018-01-18T00:26:33.214Z,779.51
2018-01-18T00:26:37.433Z,779.51
2018-01-18T00:26:41.567Z,779.54
2018-01-18T00:26:45.486Z,779.53
2018-01-18T00:26:49.405Z,779.54
2018-01-18T00:26:53.309Z,779.54
2018-01-18T00:26:57.246Z,779.57
2018-01-18T00:27:01.045Z,779.48
2018-01-18T00:27:05.166Z,779.51
2018-01-18T00:27:09.087Z,779.55
2018-01-18T00:27:13.212Z,779.52
2018-01-18T00:27:17.035Z,779.53
2018-01-18T00:27:20.856Z,779.55
2018-01-18T00:27:24.871Z,779.55
2018-01-18T00:27:28.567Z,779.55
2018-01-18T00:27:32.471Z,779.54
2018-01-18T00:27:36.281Z,779.55
2018-01-18T00:27:40.189Z,779.55
2018-01-18T00:27:44.119Z,779.5
2018-01-18T00:27:48.346Z,779.5
2018-01-18T00:27:52.055Z,779.5
2018-01-18T00:27:55.972Z,779.58
2018-01-18T00:27:59.975Z,779.53
2018-01-18T00:28:03.988Z,779.56
2018-01-18T00:28:07.804Z,779.56
2018-01-18T00:28:11.716Z,779.56
2018-01-18T00:28:15.519Z,779.55
2018-01-18T00:28:19.323Z,779.54
2018-01-18T00:28:23.457Z,779.54
2018-01-18T00:28:27.155Z,779.53
2018-01-18T00:28:31.068Z,779.55
2018-01-18T00:28:35.092Z,779.56
2018-01-18T00:28:39.114Z,779.55
2018-01-18T00:28:43.035Z,779.54
2018-01-18T00:28:47.088Z,779.54
2018-01-18T00:28:51.101Z,779.55
2018-01-18T00:28:54.792Z,779.53
2018-01-18T00:28:58.795Z,779.52
2018-01-18T00:29:02.812Z,779.52
2018-01-18T00:29:06.834Z,779.54
2018-01-18T00:29:10.654Z,779.49
2018-01-18T00:29:14.453Z,779.53
2018-01-18T00:29:18.683Z,779.47
2018-01-18T00:29:22.394Z,779.46
2018-01-18T00:29:26.101Z,779.49
2018-01-18T00:29:30.232Z,779.49
2018-01-18T00:29:34.133Z,779.52
2018-01-18T00:29:38.047Z,779.49
2018-01-18T00:29:42.075Z,779.5
2018-01-18T00:29:45.890Z,779.46
2018-01-18T00:29:49.800Z,779.49
2018-01-18T00:29:53.707Z,779.44
2018-01-18T00:29:57.629Z,779.48
2018-01-18T00:30:01.544Z,779.44
2018-01-18T00:30:05.571Z,779.43
2018-01-18T00:30:09.474Z,779.43
2018-01-18T00:30:13.491Z,779.42
2018-01-18T00:30:17.196Z,779.43
2018-01-18T00:30:21.192Z,779.44
2018-01-18T00:30:25.010Z,779.42
2018-01-18T00:30:29.023Z,779.42
2018-01-18T00:30:33.129Z,779.38
2018-01-18T00:30:36.921Z,779.39
2018-01-18T00:30:40.827Z,779.44
2018-01-18T00:30:44.625Z,779.46
2018-01-18T00:30:48.429Z,779.39
2018-01-18T00:30:52.333Z,779.38
2018-01-18T00:30:56.255Z,779.42
2018-01-18T00:31:00.062Z,779.4
2018-01-18T00:31:04.235Z,779.39
2018-01-18T00:31:08.448Z,779.36
2018-01-18T00:31:12.348Z,779.39
2018-01-18T00:31:16.364Z,779.38
2018-01-18T00:31:20.288Z,779.39
2018-01-18T00:31:24.320Z,779.38
2018-01-18T00:31:28.441Z,779.36
2018-01-18T00:31:32.251Z,779.35
2018-01-18T00:31:36.272Z,779.35
2018-01-18T00:31:40.393Z,779.38
2018-01-18T00:31:44.303Z,779.35
2018-01-18T00:31:48.266Z,779.35
2018-01-18T00:31:52.391Z,779.31
2018-01-18T00:31:56.178Z,779.26
2018-01-18T00:32:00.083Z,779.26
2018-01-18T00:32:03.991Z,779.33
2018-01-18T00:32:07.906Z,779.35
2018-01-18T00:32:11.702Z,779.31
2018-01-18T00:32:15.511Z,779.31
2018-01-18T00:32:19.629Z,779.31
2018-01-18T00:32:23.851Z,779.29
2018-01-18T00:32:27.863Z,779.33
2018-01-18T00:32:31.769Z,779.31
2018-01-18T00:32:35.798Z,779.32
2018-01-18T00:32:39.707Z,779.3
2018-01-18T00:32:43.726Z,779.3
2018-01-18T00:32:47.636Z,779.29
2018-01-18T00:32:51.570Z,779.29
2018-01-18T00:32:55.361Z,779.27
2018-01-18T00:32:59.507Z,779.31
2018-01-18T00:33:03.431Z,779.27
2018-01-18T00:33:07.223Z,779.27
2018-01-18T00:33:11.134Z,779.26
2018-01-18T00:33:15.204Z,779.29
2018-01-18T00:33:18.978Z,779.27
2018-01-18T00:33:22.899Z,779.27
2018-01-18T00:33:26.800Z,779.29
2018-01-18T00:33:30.508Z,779.29
2018-01-18T00:33:34.522Z,779.24
2018-01-18T00:33:38.532Z,779.23
2018-01-18T00:33:42.559Z,779.19
2018-01-18T00:33:46.377Z,779.23
2018-01-18T00:33:50.400Z,779.23
2018-01-18T00:33:54.411Z,779.27
2018-01-18T00:33:58.219Z,779.22
2018-01-18T00:34:02.037Z,779.19
2018-01-18T00:34:05.847Z,779.22
2018-01-18T00:34:09.651Z,779.21
2018-01-18T00:34:13.679Z,779.22
2018-01-18T00:34:17.478Z,779.21
2018-01-18T00:34:21.297Z,779.21
2018-01-18T00:34:25.332Z,779.23
2018-01-18T00:34:29.356Z,779.18
2018-01-18T00:34:33.184Z,779.16
2018-01-18T00:34:37.187Z,779.16
2018-01-18T00:34:41.108Z,779.19
2018-01-18T00:34:45.327Z,779.17
2018-01-18T00:34:49.233Z,779.16
2018-01-18T00:34:53.020Z,779.14
2018-01-18T00:34:56.819Z,779.16
2018-01-18T00:35:00.836Z,779.14
2018-01-18T00:35:04.747Z,779.18
2018-01-18T00:35:08.755Z,779.19
2018-01-18T00:35:12.815Z,779.15
2018-01-18T00:35:16.730Z,779.16
2018-01-18T00:35:20.533Z,779.19
2018-01-18T00:35:24.556Z,779.17
2018-01-18T00:35:28.568Z,779.15
2018-01-18T00:35:32.589Z,779.16
2018-01-18T00:35:36.700Z,779.14
2018-01-18T00:35:40.714Z,779.13
2018-01-18T00:35:44.418Z,779.18
2018-01-18T00:35:48.666Z,779.19
2018-01-18T00:35:52.361Z,779.19
2018-01-18T00:35:56.381Z,779.18
2018-01-18T00:36:00.194Z,779.15
2018-01-18T00:36:04.151Z,779.14
2018-01-18T00:36:07.968Z,779.18
2018-01-18T00:36:11.988Z,779.17
2018-01-18T00:36:15.780Z,779.14
2018-01-18T00:36:19.898Z,779.11
2018-01-18T00:36:23.613Z,779.16
2018-01-18T00:36:27.522Z,779.15
2018-01-18T00:36:31.543Z,779.15
2018-01-18T00:36:35.767Z,779.09
2018-01-18T00:36:39.573Z,779.1
2018-01-18T00:36:43.387Z,779.08
2018-01-18T00:36:47.103Z,779.09
2018-01-18T00:36:51.005Z,779.06
2018-01-18T00:36:54.700Z,779.08
2018-01-18T00:36:58.527Z,779.09
2018-01-18T00:37:02.450Z,779.1
2018-01-18T00:37:06.592Z,779.06
2018-01-18T00:37:10.288Z,779.04
2018-01-18T00:37:14.202Z,779.05
2018-01-18T00:37:18.329Z,779
2018-01-18T00:37:22.448Z,779.01
2018-01-18T00:37:26.464Z,778.94
2018-01-18T00:37:30.392Z,779.03
2018-01-18T00:37:34.514Z,779.04
2018-01-18T00:37:38.508Z,779.04
2018-01-18T00:37:42.467Z,779.04
2018-01-18T00:37:46.165Z,779.04
2018-01-18T00:37:50.172Z,779.01
2018-01-18T00:37:53.986Z,778.99
2018-01-18T00:37:57.780Z,778.99
2018-01-18T00:38:01.575Z,778.99
2018-01-18T00:38:05.366Z,778.98
2018-01-18T00:38:09.065Z,778.95
2018-01-18T00:38:12.766Z,778.99
2018-01-18T00:38:16.682Z,778.97
2018-01-18T00:38:20.704Z,778.97
2018-01-18T00:38:24.715Z,779
2018-01-18T00:38:28.643Z,779
2018-01-18T00:38:32.779Z,778.96
2018-01-18T00:38:36.899Z,778.97
2018-01-18T00:38:40.904Z,778.96
2018-01-18T00:38:44.826Z,778.95
2018-01-18T00:38:48.956Z,778.96
2018-01-18T00:38:52.778Z,778.95
2018-01-18T00:38:56.700Z,778.95
2018-01-18T00:39:00.502Z,778.94
2018-01-18T00:39:04.609Z,778.95
2018-01-18T00:39:08.727Z,778.93
2018-01-18T00:39:12.856Z,778.87
2018-01-18T00:39:16.756Z,778.9
2018-01-18T00:39:20.776Z,778.93
2018-01-18T00:39:24.799Z,778.86
2018-01-18T00:39:28.606Z,778.89
2018-01-18T00:39:32.740Z,778.87
2018-01-18T00:39:36.660Z,778.9
2018-01-18T00:39:40.573Z,778.85
2018-01-18T00:39:44.478Z,778.88
2018-01-18T00:39:48.168Z,778.88
2018-01-18T00:39:52.343Z,778.91
2018-01-18T00:39:56.572Z,778.89
2018-01-18T00:40:00.467Z,778.89
2018-01-18T00:40:04.686Z,778.89
2018-01-18T00:40:08.404Z,778.9
2018-01-18T00:40:12.534Z,778.85
2018-01-18T00:40:16.349Z,778.89
2018-01-18T00:40:20.659Z,778.87
2018-01-18T00:40:24.583Z,778.89
2018-01-18T00:40:28.496Z,778.9
2018-01-18T00:40:32.390Z,778.87
2018-01-18T00:40:36.609Z,778.85
2018-01-18T00:40:40.322Z,778.88
2018-01-18T00:40:44.553Z,778.86
2018-01-18T00:40:48.357Z,778.86
2018-01-18T00:40:52.072Z,778.84
2018-01-18T00:40:55.887Z,778.87
2018-01-18T00:40:59.712Z,778.85
2018-01-18T00:41:03.981Z,778.86
2018-01-18T00:41:07.902Z,778.84
2018-01-18T00:41:11.821Z,778.87
2018-01-18T00:41:15.836Z,778.83
2018-01-18T00:41:19.852Z,778.86
2018-01-18T00:41:23.664Z,778.81
2018-01-18T00:41:27.483Z,778.84
2018-01-18T00:41:31.168Z,778.88
2018-01-18T00:41:35.085Z,778.85
2018-01-18T00:41:38.988Z,778.83
2018-01-18T00:41:42.885Z,778.84
2018-01-18T00:41:46.680Z,778.81
2018-01-18T00:41:50.384Z,778.84
2018-01-18T00:41:54.093Z,778.81
2018-01-18T00:41:58.031Z,778.82
2018-01-18T00:42:02.043Z,778.81
2018-01-18T00:42:06.061Z,778.83
2018-01-18T00:42:09.761Z,778.83
2018-01-18T00:42:13.899Z,778.82
2018-01-18T00:42:17.598Z,778.81
2018-01-18T00:42:21.516Z,778.81
2018-01-18T00:42:25.434Z,778.81
2018-01-18T00:42:29.334Z,778.82
2018-01-18T00:42:33.459Z,778.82
2018-01-18T00:42:37.273Z,778.82
2018-01-18T00:42:41.284Z,778.81
2018-01-18T00:42:45.073Z,778.81
2018-01-18T00:42:49.078Z,778.8
2018-01-18T00:42:52.881Z,778.8
2018-01-18T00:42:56.680Z,778.8
2018-01-18T00:43:00.903Z,778.79
2018-01-18T00:43:04.911Z,778.79
2018-01-18T00:43:08.820Z,778.78
2018-01-18T00:43:13.043Z,778.76
2018-01-18T00:43:16.845Z,778.78
2018-01-18T00:43:20.869Z,778.78
2018-01-18T00:43:24.879Z,778.78
2018-01-18T00:43:28.797Z,778.8
2018-01-18T00:43:32.724Z,778.8
2018-01-18T00:43:36.655Z,778.75
2018-01-18T00:43:40.884Z,778.71
2018-01-18T00:43:44.581Z,778.73
2018-01-18T00:43:48.595Z,778.71
2018-01-18T00:43:52.399Z,778.72
2018-01-18T00:43:56.728Z,778.76
2018-01-18T00:44:00.549Z,778.77
2018-01-18T00:44:04.572Z,778.79
2018-01-18T00:44:08.481Z,778.75
2018-01-18T00:44:12.502Z,778.78
2018-01-18T00:44:16.636Z,778.75
2018-01-18T00:44:20.349Z,778.75
2018-01-18T00:44:24.365Z,778.77
2018-01-18T00:44:28.178Z,778.74
2018-01-18T00:44:32.091Z,778.73
2018-01-18T00:44:35.994Z,778.73
2018-01-18T00:44:39.819Z,778.73
2018-01-18T00:44:44.039Z,778.73
2018-01-18T00:44:47.854Z,778.73
2018-01-18T00:44:51.674Z,778.72
2018-01-18T00:44:55.594Z,778.73
2018-01-18T00:44:59.410Z,778.73
2018-01-18T00:45:03.400Z,778.72
2018-01-18T00:45:07.626Z,778.7
2018-01-18T00:45:11.551Z,778.71
2018-01-18T00:45:15.350Z,778.69
2018-01-18T00:45:19.482Z,778.72
2018-01-18T00:45:23.504Z,778.71
2018-01-18T00:45:27.649Z,778.7
2018-01-18T00:45:31.657Z,778.69
2018-01-18T00:45:35.555Z,778.7
2018-01-18T00:45:39.350Z,778.68
2018-01-18T00:45:43.364Z,778.68
2018-01-18T00:45:47.486Z,778.7
2018-01-18T00:45:51.298Z,778.7
2018-01-18T00:45:55.101Z,778.67
2018-01-18T00:45:59.014Z,778.67
2018-01-18T00:46:03.140Z,778.65
2018-01-18T00:46:06.951Z,778.67
2018-01-18T00:46:10.768Z,778.64
2018-01-18T00:46:14.785Z,778.61
2018-01-18T00:46:18.912Z,778.64
2018-01-18T00:46:22.941Z,778.56
2018-01-18T00:46:26.753Z,778.62
2018-01-18T00:46:30.810Z,778.56
2018-01-18T00:46:34.932Z,778.61
2018-01-18T00:46:38.840Z,778.63
2018-01-18T00:46:42.845Z,778.58
2018-01-18T00:46:46.855Z,778.56
2018-01-18T00:46:50.765Z,778.53
2018-01-18T00:46:54.908Z,778.55
2018-01-18T00:46:58.757Z,778.55
2018-01-18T00:47:03.092Z,778.56
2018-01-18T00:47:06.789Z,778.54
2018-01-18T00:47:10.799Z,778.57
2018-01-18T00:47:14.931Z,778.56
2018-01-18T00:47:18.839Z,778.51
2018-01-18T00:47:22.759Z,778.52
2018-01-18T00:47:26.658Z,778.5
2018-01-18T00:47:30.571Z,778.52
2018-01-18T00:47:34.592Z,778.52
2018-01-18T00:47:38.601Z,778.5
2018-01-18T00:47:42.732Z,778.53
2018-01-18T00:47:46.648Z,778.56
2018-01-18T00:47:50.453Z,778.56
2018-01-18T00:47:54.353Z,778.58
2018-01-18T00:47:58.459Z,778.51
2018-01-18T00:48:02.366Z,778.5
2018-01-18T00:48:06.384Z,778.51
2018-01-18T00:48:10.196Z,778.51
2018-01-18T00:48:14.111Z,778.54
2018-01-18T00:48:18.008Z,778.52
2018-01-18T00:48:21.911Z,778.52
2018-01-18T00:48:25.715Z,778.51
2018-01-18T00:48:29.626Z,778.49
2018-01-18T00:48:33.667Z,778.47
2018-01-18T00:48:37.804Z,778.48
2018-01-18T00:48:41.726Z,778.47
2018-01-18T00:48:45.525Z,778.48
2018-01-18T00:48:49.557Z,778.44
2018-01-18T00:48:53.589Z,778.47
2018-01-18T00:48:57.610Z,778.48
2018-01-18T00:49:01.624Z,778.44
2018-01-18T00:49:05.900Z,778.45
2018-01-18T00:49:10.184Z,778.43
2018-01-18T00:49:14.306Z,778.42
2018-01-18T00:49:18.215Z,778.43
2018-01-18T00:49:22.223Z,778.44
2018-01-18T00:49:26.136Z,778.42